Time;durP1;ratioP1;P1;durP2;ratioP2;P2;SDS_P1;SDS_P2;PMS_P1;PMS_P2;Temp;Humidity;BMP_temperature;BMP_pressure;BME280_temperature;BME280_humidity;BME280_pressure;Samples;Min_cycle;Max_cycle;Signal;HPM_P1;HPM_P2
2023/12/12 00:01:54;;;;;;;2.83;1.67;;;;;;;;;;5080060;28;20202;-79
2023/12/12 00:04:20;;;;;;;2.00;1.13;;;;;;;;;;5070736;28;20207;-78
2023/12/12 00:06:46;;;;;;;2.57;1.50;;;;;;;;;;5080976;28;20217;-79
2023/12/12 00:09:12;;;;;;;3.27;1.50;;;;;;;;;;5080639;28;20266;-79
2023/12/12 00:11:38;;;;;;;2.00;1.70;;;;;;;;;;5084706;28;20198;-79
2023/12/12 00:14:04;;;;;;;2.43;1.57;;;;;;;;;;5080019;28;20645;-79
2023/12/12 00:16:30;;;;;;;3.30;1.60;;;;;;;;;;5075901;28;20214;-80
2023/12/12 00:18:56;;;;;;;2.43;1.70;;;;;;;;;;5082635;28;20251;-80
2023/12/12 00:21:22;;;;;;;2.57;1.73;;;;;;;;;;5084802;28;20187;-80
2023/12/12 00:23:48;;;;;;;2.30;1.57;;;;;;;;;;5087074;28;20210;-79
2023/12/12 00:26:15;;;;;;;4.70;1.70;;;;;;;;;;5081659;28;20221;-78
2023/12/12 00:28:41;;;;;;;2.53;1.60;;;;;;;;;;5079869;28;20217;-79
2023/12/12 00:31:07;;;;;;;2.73;1.47;;;;;;;;;;5079601;28;20207;-79
2023/12/12 00:33:33;;;;;;;2.73;1.60;;;;;;;;;;5081554;28;20273;-79
2023/12/12 00:36:03;;;;;;;2.90;1.53;;;;;;;;;;5079602;28;20932;-79
2023/12/12 00:38:29;;;;;;;2.13;1.50;;;;;;;;;;5086081;28;20319;-79
2023/12/12 00:40:55;;;;;;;2.60;1.80;;;;;;;;;;5083383;28;20234;-77
2023/12/12 00:43:23;;;;;;;3.10;2.00;;;;;;;;;;5081042;28;20234;-78
2023/12/12 00:45:49;;;;;;;3.33;1.90;;;;;;;;;;5087671;28;20280;-78
2023/12/12 00:48:15;;;;;;;2.23;1.60;;;;;;;;;;5080307;28;20234;-79
2023/12/12 00:50:41;;;;;;;3.13;2.10;;;;;;;;;;5086222;28;20170;-79
2023/12/12 00:53:07;;;;;;;1.83;1.57;;;;;;;;;;5085683;28;20692;-78
2023/12/12 00:55:33;;;;;;;5.60;1.50;;;;;;;;;;5084924;28;20207;-78
2023/12/12 00:57:59;;;;;;;3.53;1.63;;;;;;;;;;5084717;28;20730;-78
2023/12/12 01:00:25;;;;;;;3.70;1.77;;;;;;;;;;5084200;28;20175;-79
2023/12/12 01:02:51;;;;;;;3.47;1.57;;;;;;;;;;5087070;28;20185;-79
2023/12/12 01:05:17;;;;;;;2.83;1.43;;;;;;;;;;5084140;28;20217;-78
2023/12/12 01:07:43;;;;;;;4.47;1.73;;;;;;;;;;5080053;28;20226;-78
2023/12/12 01:10:09;;;;;;;2.57;1.60;;;;;;;;;;5048320;28;20206;-78
2023/12/12 01:12:36;;;;;;;3.07;1.70;;;;;;;;;;5085064;28;20210;-78
2023/12/12 01:15:02;;;;;;;1.97;1.53;;;;;;;;;;5078857;28;20222;-78
2023/12/12 01:17:28;;;;;;;2.50;1.97;;;;;;;;;;5085257;28;20210;-78
2023/12/12 01:19:55;;;;;;;6.00;2.10;;;;;;;;;;5081229;28;20298;-77
2023/12/12 01:22:21;;;;;;;1.77;1.30;;;;;;;;;;5080179;28;20206;-78
2023/12/12 01:24:47;;;;;;;4.97;2.03;;;;;;;;;;5084298;28;20237;-78
2023/12/12 01:27:13;;;;;;;4.37;3.00;;;;;;;;;;5082218;28;20178;-80
2023/12/12 01:29:39;;;;;;;2.63;1.93;;;;;;;;;;5087252;28;20303;-79
2023/12/12 01:32:05;;;;;;;3.73;2.40;;;;;;;;;;5085885;28;20232;-79
2023/12/12 01:34:31;;;;;;;7.23;3.87;;;;;;;;;;5083154;28;20264;-78
2023/12/12 01:36:57;;;;;;;7.73;3.40;;;;;;;;;;5084472;28;20313;-78
2023/12/12 01:39:23;;;;;;;7.20;4.20;;;;;;;;;;5086435;28;20654;-78
2023/12/12 01:41:50;;;;;;;14.30;8.30;;;;;;;;;;5083085;28;20185;-79
2023/12/12 01:44:16;;;;;;;24.53;15.17;;;;;;;;;;5083310;28;20302;-78
2023/12/12 01:46:46;;;;;;;20.70;11.90;;;;;;;;;;5082296;28;20211;-79
2023/12/12 01:49:12;;;;;;;12.63;6.33;;;;;;;;;;5081984;28;20681;-79
2023/12/12 01:51:39;;;;;;;13.10;5.67;;;;;;;;;;5085587;28;20213;-79
2023/12/12 01:54:06;;;;;;;6.40;3.47;;;;;;;;;;5081875;28;20182;-79
2023/12/12 01:56:33;;;;;;;3.23;2.80;;;;;;;;;;5081484;28;20222;-79
2023/12/12 01:58:59;;;;;;;2.67;2.20;;;;;;;;;;5083956;28;20222;-79
2023/12/12 02:01:26;;;;;;;3.17;1.90;;;;;;;;;;5082679;28;20907;-78
2023/12/12 02:03:53;;;;;;;2.53;1.63;;;;;;;;;;5084196;28;20222;-79
2023/12/12 02:06:22;;;;;;;2.50;1.73;;;;;;;;;;5084727;28;20194;-79
2023/12/12 02:08:51;;;;;;;4.90;1.83;;;;;;;;;;5080478;28;20167;-78
2023/12/12 02:11:18;;;;;;;2.73;2.10;;;;;;;;;;5085625;28;20344;-79
2023/12/12 02:13:44;;;;;;;2.43;1.67;;;;;;;;;;5083960;28;20224;-79
2023/12/12 02:16:10;;;;;;;3.47;2.33;;;;;;;;;;5083704;28;20341;-79
2023/12/12 02:18:37;;;;;;;3.60;2.57;;;;;;;;;;5075135;28;20209;-78
2023/12/12 02:21:03;;;;;;;4.00;2.00;;;;;;;;;;5086156;28;20174;-79
2023/12/12 02:23:29;;;;;;;4.37;2.77;;;;;;;;;;5081876;28;20238;-79
2023/12/12 02:25:56;;;;;;;3.70;2.20;;;;;;;;;;5084050;28;20261;-79
2023/12/12 02:28:22;;;;;;;3.97;2.33;;;;;;;;;;5083506;28;20202;-79
2023/12/12 02:30:48;;;;;;;4.30;2.50;;;;;;;;;;5087472;28;20202;-79
2023/12/12 02:33:14;;;;;;;4.40;2.33;;;;;;;;;;5082134;28;20214;-79
2023/12/12 02:35:40;;;;;;;3.33;2.20;;;;;;;;;;5086992;28;20194;-79
2023/12/12 02:38:07;;;;;;;2.90;2.13;;;;;;;;;;5083919;28;20207;-79
2023/12/12 02:40:33;;;;;;;3.60;2.47;;;;;;;;;;5085737;28;20205;-79
2023/12/12 02:42:59;;;;;;;4.47;2.93;;;;;;;;;;5084000;28;20194;-79
2023/12/12 02:45:25;;;;;;;4.23;2.80;;;;;;;;;;5084159;28;20199;-78
2023/12/12 02:47:51;;;;;;;5.30;3.20;;;;;;;;;;5078468;28;20184;-79
2023/12/12 02:50:17;;;;;;;3.50;2.50;;;;;;;;;;5083193;28;20699;-78
2023/12/12 02:52:43;;;;;;;4.53;2.87;;;;;;;;;;5082520;28;20214;-79
2023/12/12 02:55:10;;;;;;;4.53;3.20;;;;;;;;;;5086755;28;20669;-79
2023/12/12 02:57:36;;;;;;;4.07;3.33;;;;;;;;;;5088546;28;20265;-79
2023/12/12 03:00:03;;;;;;;3.80;2.90;;;;;;;;;;5085610;28;20214;-79
2023/12/12 03:02:29;;;;;;;4.17;2.33;;;;;;;;;;5080953;28;20997;-80
2023/12/12 03:04:55;;;;;;;5.03;2.77;;;;;;;;;;5075621;28;20223;-79
2023/12/12 03:07:21;;;;;;;4.27;3.10;;;;;;;;;;5083353;28;20260;-80
2023/12/12 03:09:49;;;;;;;5.50;3.20;;;;;;;;;;5087699;28;20232;-79
2023/12/12 03:12:15;;;;;;;3.50;2.83;;;;;;;;;;5086564;28;20185;-80
2023/12/12 03:14:41;;;;;;;5.87;3.20;;;;;;;;;;5077915;28;20225;-80
2023/12/12 03:17:07;;;;;;;4.33;3.10;;;;;;;;;;5082236;28;20202;-79
2023/12/12 03:19:33;;;;;;;4.60;2.80;;;;;;;;;;5082957;28;20215;-79
2023/12/12 03:21:59;;;;;;;5.03;3.40;;;;;;;;;;5081542;28;20297;-78
2023/12/12 03:24:25;;;;;;;4.93;3.20;;;;;;;;;;5080192;28;20279;-79
2023/12/12 03:26:51;;;;;;;4.83;3.23;;;;;;;;;;5083917;28;20282;-80
2023/12/12 03:29:17;;;;;;;4.57;3.23;;;;;;;;;;5079967;28;20236;-80
2023/12/12 03:31:43;;;;;;;5.93;3.10;;;;;;;;;;5080532;28;20207;-80
2023/12/12 03:34:09;;;;;;;4.07;2.50;;;;;;;;;;5074022;28;20643;-79
2023/12/12 03:36:35;;;;;;;5.83;3.10;;;;;;;;;;5079247;28;20554;-80
2023/12/12 03:39:02;;;;;;;5.23;3.03;;;;;;;;;;5086592;28;20655;-80
2023/12/12 03:41:29;;;;;;;5.77;3.23;;;;;;;;;;5077590;28;20681;-80
2023/12/12 03:43:55;;;;;;;4.00;2.97;;;;;;;;;;5084893;28;20244;-80
2023/12/12 03:46:21;;;;;;;4.20;2.90;;;;;;;;;;5083464;28;20276;-80
2023/12/12 03:48:47;;;;;;;2.97;2.30;;;;;;;;;;5086348;28;20218;-81
2023/12/12 03:51:13;;;;;;;3.53;1.97;;;;;;;;;;5084344;28;20187;-80
2023/12/12 03:53:39;;;;;;;3.67;1.40;;;;;;;;;;5077909;28;20205;-80
2023/12/12 03:56:06;;;;;;;1.63;1.20;;;;;;;;;;5086016;28;20281;-81
2023/12/12 03:58:32;;;;;;;1.37;0.73;;;;;;;;;;5067797;28;20571;-80
2023/12/12 04:00:58;;;;;;;1.20;0.63;;;;;;;;;;5078981;28;20622;-79
2023/12/12 04:03:24;;;;;;;4.03;1.03;;;;;;;;;;5073826;28;20624;-80
2023/12/12 04:05:50;;;;;;;1.33;0.80;;;;;;;;;;5073064;28;20217;-80
2023/12/12 04:08:16;;;;;;;0.67;0.60;;;;;;;;;;5073421;28;20601;-80
2023/12/12 04:10:42;;;;;;;1.73;1.10;;;;;;;;;;5078928;28;20213;-79
2023/12/12 04:13:08;;;;;;;2.13;0.90;;;;;;;;;;5073392;28;20210;-80
2023/12/12 04:15:34;;;;;;;1.43;0.90;;;;;;;;;;5069285;28;20234;-80
2023/12/12 04:18:00;;;;;;;2.30;1.00;;;;;;;;;;5080491;28;20202;-79
2023/12/12 04:20:26;;;;;;;1.13;0.80;;;;;;;;;;5076319;28;20203;-79
2023/12/12 04:22:52;;;;;;;1.37;0.70;;;;;;;;;;5077879;28;20203;-80
2023/12/12 04:25:19;;;;;;;1.23;0.93;;;;;;;;;;5077914;28;20217;-78
2023/12/12 04:27:45;;;;;;;1.93;1.17;;;;;;;;;;5076387;28;20202;-80
2023/12/12 04:30:11;;;;;;;1.53;1.10;;;;;;;;;;5077585;28;20266;-80
2023/12/12 04:32:38;;;;;;;3.30;1.27;;;;;;;;;;5082281;28;20183;-79
2023/12/12 04:35:10;;;;;;;1.90;1.30;;;;;;;;;;5074985;28;20238;-80
2023/12/12 04:37:36;;;;;;;1.63;1.10;;;;;;;;;;5080208;28;20584;-80
2023/12/12 04:40:02;;;;;;;2.50;1.67;;;;;;;;;;5082507;28;20206;-80
2023/12/12 04:42:28;;;;;;;1.97;1.43;;;;;;;;;;5072864;28;20210;-79
2023/12/12 04:44:55;;;;;;;3.93;1.57;;;;;;;;;;5080376;28;20566;-79
2023/12/12 04:47:21;;;;;;;2.47;1.57;;;;;;;;;;5046495;28;20202;-80
2023/12/12 04:49:47;;;;;;;2.37;1.63;;;;;;;;;;5082438;28;20198;-80
2023/12/12 04:52:13;;;;;;;3.00;1.67;;;;;;;;;;5079548;28;20220;-80
2023/12/12 04:54:39;;;;;;;3.30;1.60;;;;;;;;;;5083334;28;20207;-80
2023/12/12 04:57:05;;;;;;;2.47;1.47;;;;;;;;;;5079267;28;20235;-80
2023/12/12 04:59:31;;;;;;;2.60;1.70;;;;;;;;;;5079855;28;20199;-81
2023/12/12 05:01:58;;;;;;;2.65;1.90;;;;;;;;;;5075735;28;20407;-79
2023/12/12 05:04:24;;;;;;;4.27;1.57;;;;;;;;;;5070479;28;20209;-79
2023/12/12 05:06:50;;;;;;;2.90;1.53;;;;;;;;;;5077270;28;20724;-80
2023/12/12 05:09:17;;;;;;;3.03;1.67;;;;;;;;;;5078974;28;20203;-79
2023/12/12 05:11:43;;;;;;;2.63;1.60;;;;;;;;;;5079851;28;20317;-79
2023/12/12 05:14:10;;;;;;;3.07;1.77;;;;;;;;;;5066137;28;20569;-79
2023/12/12 05:16:37;;;;;;;4.60;1.90;;;;;;;;;;5078969;28;20202;-80
2023/12/12 05:19:03;;;;;;;2.90;1.60;;;;;;;;;;5082540;28;20255;-78
2023/12/12 05:21:29;;;;;;;7.40;1.97;;;;;;;;;;5081811;28;20203;-80
2023/12/12 05:23:56;;;;;;;5.47;1.80;;;;;;;;;;5086386;28;20193;-80
2023/12/12 05:26:22;;;;;;;3.57;1.73;;;;;;;;;;5078124;28;20217;-80
2023/12/12 05:28:48;;;;;;;2.87;1.87;;;;;;;;;;5077392;28;20286;-79
2023/12/12 05:31:14;;;;;;;5.17;1.80;;;;;;;;;;5091172;28;20214;-80
2023/12/12 05:33:41;;;;;;;3.20;1.80;;;;;;;;;;5084764;28;20198;-79
2023/12/12 05:36:07;;;;;;;3.63;1.50;;;;;;;;;;5080777;28;20233;-78
2023/12/12 05:38:33;;;;;;;2.90;1.23;;;;;;;;;;5088620;28;20660;-81
2023/12/12 05:40:59;;;;;;;4.70;1.40;;;;;;;;;;5089056;28;20210;-80
2023/12/12 05:43:25;;;;;;;5.37;1.80;;;;;;;;;;5089520;28;20214;-82
2023/12/12 05:45:51;;;;;;;4.53;1.57;;;;;;;;;;5082043;28;20214;-81
2023/12/12 05:48:17;;;;;;;3.90;1.60;;;;;;;;;;5082539;28;20175;-81
2023/12/12 05:50:43;;;;;;;4.23;1.57;;;;;;;;;;5086520;28;20170;-81
2023/12/12 05:53:09;;;;;;;3.47;2.23;;;;;;;;;;5085492;28;20207;-80
2023/12/12 05:55:36;;;;;;;4.70;2.40;;;;;;;;;;5085971;28;20688;-80
2023/12/12 05:58:04;;;;;;;5.57;1.63;;;;;;;;;;5089000;28;20324;-82
2023/12/12 06:00:30;;;;;;;3.70;2.07;;;;;;;;;;5081203;28;20209;-81
2023/12/12 06:02:56;;;;;;;1.80;1.60;;;;;;;;;;5059965;28;20203;-81
2023/12/12 06:05:22;;;;;;;4.90;1.73;;;;;;;;;;5086016;28;20248;-80
2023/12/12 06:07:48;;;;;;;2.40;1.37;;;;;;;;;;5087221;28;20735;-80
2023/12/12 06:10:14;;;;;;;4.40;1.87;;;;;;;;;;5087823;28;20245;-80
2023/12/12 06:12:40;;;;;;;3.63;1.90;;;;;;;;;;5086376;28;20777;-81
2023/12/12 06:15:07;;;;;;;4.13;1.87;;;;;;;;;;5083487;28;20684;-80
2023/12/12 06:17:36;;;;;;;4.93;2.13;;;;;;;;;;5088496;28;20301;-80
2023/12/12 06:20:03;;;;;;;5.33;1.80;;;;;;;;;;5075404;28;20237;-81
2023/12/12 06:22:29;;;;;;;4.37;1.80;;;;;;;;;;5083602;28;20219;-80
2023/12/12 06:24:55;;;;;;;3.57;2.17;;;;;;;;;;5084960;28;20234;-81
2023/12/12 06:27:21;;;;;;;4.60;2.13;;;;;;;;;;5065513;28;20179;-80
2023/12/12 06:29:49;;;;;;;4.93;2.40;;;;;;;;;;5064473;28;20211;-78
2023/12/12 06:32:15;;;;;;;5.20;3.17;;;;;;;;;;5084082;28;20685;-82
2023/12/12 06:34:43;;;;;;;2.93;1.70;;;;;;;;;;5081935;28;20245;-82
2023/12/12 06:37:10;;;;;;;3.33;2.33;;;;;;;;;;5089528;28;20260;-80
2023/12/12 06:39:36;;;;;;;2.67;1.90;;;;;;;;;;5085301;28;20693;-82
2023/12/12 06:42:02;;;;;;;5.20;2.60;;;;;;;;;;5058346;28;20203;-79
2023/12/12 06:44:28;;;;;;;5.70;2.27;;;;;;;;;;5079003;28;20288;-80
2023/12/12 06:46:54;;;;;;;5.17;2.73;;;;;;;;;;5061857;28;20573;-81
2023/12/12 06:49:20;;;;;;;5.73;2.63;;;;;;;;;;5063540;28;20203;-81
2023/12/12 06:51:46;;;;;;;6.97;2.37;;;;;;;;;;5074259;28;20238;-79
2023/12/12 06:54:12;;;;;;;4.67;2.30;;;;;;;;;;5079137;28;20182;-79
2023/12/12 06:56:38;;;;;;;4.23;2.53;;;;;;;;;;5077539;28;20195;-83
2023/12/12 06:59:05;;;;;;;2.30;2.10;;;;;;;;;;5082427;28;20909;-80
2023/12/12 07:01:31;;;;;;;4.60;2.60;;;;;;;;;;5088209;28;20536;-80
2023/12/12 07:03:58;;;;;;;8.70;3.20;;;;;;;;;;5063076;28;20211;-78
2023/12/12 07:06:24;;;;;;;6.03;2.40;;;;;;;;;;5080800;28;20197;-80
2023/12/12 07:08:50;;;;;;;4.23;2.60;;;;;;;;;;5077716;28;20273;-80
2023/12/12 07:11:16;;;;;;;6.47;2.87;;;;;;;;;;5079934;28;20209;-79
2023/12/12 07:13:43;;;;;;;4.67;2.57;;;;;;;;;;5089371;28;20219;-79
2023/12/12 07:16:10;;;;;;;5.03;2.67;;;;;;;;;;5086006;28;20206;-79
2023/12/12 07:18:39;;;;;;;6.10;2.40;;;;;;;;;;5090318;28;20213;-79
2023/12/12 07:21:06;;;;;;;5.10;3.10;;;;;;;;;;5078769;28;20171;-80
2023/12/12 07:23:32;;;;;;;10.57;3.33;;;;;;;;;;5081885;28;20287;-80
2023/12/12 07:25:59;;;;;;;5.03;2.37;;;;;;;;;;5080534;28;20210;-80
2023/12/12 07:28:25;;;;;;;5.33;2.87;;;;;;;;;;5082075;28;20206;-79
2023/12/12 07:30:53;;;;;;;7.20;3.00;;;;;;;;;;5084253;28;20198;-78
2023/12/12 07:33:19;;;;;;;10.60;3.97;;;;;;;;;;5082868;28;20203;-77
2023/12/12 07:35:45;;;;;;;4.13;3.10;;;;;;;;;;5082282;28;20201;-77
2023/12/12 07:38:11;;;;;;;9.47;3.10;;;;;;;;;;5078067;28;20198;-79
2023/12/12 07:40:37;;;;;;;5.47;3.27;;;;;;;;;;5075226;28;20210;-76
2023/12/12 07:43:03;;;;;;;5.80;3.57;;;;;;;;;;5081138;28;20210;-78
2023/12/12 07:45:29;;;;;;;13.40;4.87;;;;;;;;;;5074000;28;20219;-79
2023/12/12 07:47:55;;;;;;;7.63;3.23;;;;;;;;;;5082916;28;20648;-78
2023/12/12 07:50:21;;;;;;;7.93;3.73;;;;;;;;;;5079710;28;20340;-79
2023/12/12 07:52:50;;;;;;;8.40;3.60;;;;;;;;;;5076554;28;20243;-79
2023/12/12 07:55:16;;;;;;;4.40;3.00;;;;;;;;;;5078884;28;20230;-79
2023/12/12 07:57:42;;;;;;;5.70;3.10;;;;;;;;;;5078941;28;20283;-79
2023/12/12 08:00:10;;;;;;;8.27;3.30;;;;;;;;;;5081033;28;20178;-79
2023/12/12 08:02:36;;;;;;;9.90;3.93;;;;;;;;;;5080720;28;20185;-79
2023/12/12 08:05:03;;;;;;;6.50;3.57;;;;;;;;;;5081199;28;20209;-79
2023/12/12 08:07:29;;;;;;;5.30;3.40;;;;;;;;;;5079410;28;20236;-79
2023/12/12 08:09:55;;;;;;;7.87;3.70;;;;;;;;;;5080041;28;20234;-78
2023/12/12 08:12:23;;;;;;;6.63;3.07;;;;;;;;;;5078334;28;20174;-78
2023/12/12 08:14:49;;;;;;;6.03;3.30;;;;;;;;;;5083436;28;20269;-79
2023/12/12 08:17:15;;;;;;;6.53;2.70;;;;;;;;;;5075958;28;20699;-79
2023/12/12 08:19:41;;;;;;;5.27;2.73;;;;;;;;;;5082209;28;20213;-80
2023/12/12 08:22:07;;;;;;;6.70;3.83;;;;;;;;;;5087982;28;20222;-80
2023/12/12 08:24:33;;;;;;;8.63;3.43;;;;;;;;;;5079662;28;20697;-80
2023/12/12 08:27:00;;;;;;;6.07;3.20;;;;;;;;;;5074983;28;20634;-79
2023/12/12 08:29:26;;;;;;;8.70;2.93;;;;;;;;;;5085009;28;20206;-80
2023/12/12 08:31:52;;;;;;;7.20;2.50;;;;;;;;;;5081961;28;20203;-80
2023/12/12 08:34:18;;;;;;;6.53;3.10;;;;;;;;;;5079933;28;20736;-77
2023/12/12 08:36:44;;;;;;;8.80;2.83;;;;;;;;;;5078550;28;20199;-78
2023/12/12 08:39:11;;;;;;;6.33;3.27;;;;;;;;;;5082290;28;20177;-80
2023/12/12 08:41:40;;;;;;;5.57;3.00;;;;;;;;;;5080586;28;20173;-80
2023/12/12 08:44:06;;;;;;;7.43;2.93;;;;;;;;;;5061080;28;20679;-78
2023/12/12 08:46:32;;;;;;;6.37;2.93;;;;;;;;;;5057557;28;20570;-78
2023/12/12 08:48:58;;;;;;;5.97;2.97;;;;;;;;;;5078138;28;20206;-77
2023/12/12 08:51:26;;;;;;;8.47;2.47;;;;;;;;;;5074363;28;20229;-78
2023/12/12 08:53:53;;;;;;;7.20;3.33;;;;;;;;;;5081011;28;20171;-78
2023/12/12 08:56:19;;;;;;;5.23;2.27;;;;;;;;;;5078088;28;20229;-78
2023/12/12 08:58:46;;;;;;;9.47;2.50;;;;;;;;;;5076693;28;20669;-78
2023/12/12 09:01:14;;;;;;;6.17;2.80;;;;;;;;;;5080873;28;20239;-78
2023/12/12 09:03:40;;;;;;;8.87;2.40;;;;;;;;;;5080639;28;20272;-78
2023/12/12 09:06:06;;;;;;;3.30;2.23;;;;;;;;;;5079267;28;20213;-78
2023/12/12 09:08:32;;;;;;;3.77;2.07;;;;;;;;;;5081698;28;20203;-78
2023/12/12 09:10:59;;;;;;;7.33;2.67;;;;;;;;;;5080435;28;20206;-79
2023/12/12 09:13:25;;;;;;;3.30;2.17;;;;;;;;;;5083641;28;20214;-78
2023/12/12 09:15:51;;;;;;;2.73;2.03;;;;;;;;;;5080642;28;20229;-78
2023/12/12 09:18:17;;;;;;;7.13;2.50;;;;;;;;;;5086678;28;20170;-78
2023/12/12 09:20:43;;;;;;;3.50;2.13;;;;;;;;;;5087322;28;20249;-78
2023/12/12 09:23:09;;;;;;;6.33;2.30;;;;;;;;;;5081137;28;20298;-79
2023/12/12 09:25:35;;;;;;;5.37;2.10;;;;;;;;;;5084404;28;20219;-79
2023/12/12 09:28:01;;;;;;;11.70;2.37;;;;;;;;;;5085035;28;20205;-78
2023/12/12 09:30:27;;;;;;;6.13;1.93;;;;;;;;;;5083746;28;20182;-79
2023/12/12 09:32:53;;;;;;;3.97;1.87;;;;;;;;;;5088629;28;20268;-79
2023/12/12 09:35:19;;;;;;;4.17;2.10;;;;;;;;;;5083329;28;20289;-79
2023/12/12 09:37:45;;;;;;;3.67;2.20;;;;;;;;;;5082053;28;20203;-78
2023/12/12 09:40:11;;;;;;;3.47;1.70;;;;;;;;;;5088132;28;20201;-79
2023/12/12 09:42:37;;;;;;;3.90;1.93;;;;;;;;;;5084957;28;20598;-79
2023/12/12 09:45:07;;;;;;;3.20;2.10;;;;;;;;;;5073847;28;20210;-79
2023/12/12 09:47:34;;;;;;;3.67;1.97;;;;;;;;;;5082021;28;20217;-78
2023/12/12 09:50:00;;;;;;;3.33;1.80;;;;;;;;;;5086602;28;20248;-78
2023/12/12 09:52:29;;;;;;;5.83;1.97;;;;;;;;;;5084686;28;20218;-79
2023/12/12 09:54:55;;;;;;;4.77;2.30;;;;;;;;;;5085272;28;20582;-78
2023/12/12 09:57:21;;;;;;;4.47;1.83;;;;;;;;;;5087452;28;20175;-83
2023/12/12 09:59:47;;;;;;;2.97;2.27;;;;;;;;;;5088496;28;20175;-79
2023/12/12 10:02:22;;;;;;;4.40;2.10;;;;;;;;;;5084704;28;20194;-79
2023/12/12 10:04:49;;;;;;;4.63;2.47;;;;;;;;;;5088650;28;20340;-79
2023/12/12 10:07:17;;;;;;;5.23;1.90;;;;;;;;;;5088603;28;20222;-78
2023/12/12 10:09:44;;;;;;;3.77;2.10;;;;;;;;;;5079935;28;20226;-79
2023/12/12 10:12:10;;;;;;;3.90;1.77;;;;;;;;;;5091642;28;20174;-80
2023/12/12 10:14:40;;;;;;;5.40;1.83;;;;;;;;;;5090666;28;20277;-79
2023/12/12 10:17:10;;;;;;;2.37;1.43;;;;;;;;;;5089542;28;20202;-80
2023/12/12 10:19:36;;;;;;;4.27;2.60;;;;;;;;;;5084223;28;20207;-79
2023/12/12 10:22:06;;;;;;;2.77;1.43;;;;;;;;;;5083568;28;20213;-79
2023/12/12 10:24:32;;;;;;;3.73;1.73;;;;;;;;;;5086423;28;20230;-79
2023/12/12 10:26:58;;;;;;;2.43;1.53;;;;;;;;;;5086693;28;20222;-80
2023/12/12 10:29:25;;;;;;;1.90;1.63;;;;;;;;;;5084461;28;20308;-80
2023/12/12 10:31:52;;;;;;;3.17;1.80;;;;;;;;;;5096162;28;20199;-79
2023/12/12 10:34:19;;;;;;;3.17;1.73;;;;;;;;;;5079442;28;20232;-80
2023/12/12 10:36:48;;;;;;;3.70;2.23;;;;;;;;;;5094338;28;20207;-79
2023/12/12 10:39:15;;;;;;;5.27;1.90;;;;;;;;;;5073271;28;20174;-79
2023/12/12 10:41:41;;;;;;;6.07;2.10;;;;;;;;;;5086018;28;20178;-78
2023/12/12 10:44:08;;;;;;;4.93;1.80;;;;;;;;;;5094595;28;20221;-79
2023/12/12 10:46:40;;;;;;;6.77;2.43;;;;;;;;;;5086786;28;20238;-78
2023/12/12 10:49:07;;;;;;;4.57;2.20;;;;;;;;;;5087306;28;20199;-79
2023/12/12 10:51:34;;;;;;;6.63;2.40;;;;;;;;;;5080946;28;20211;-77
2023/12/12 10:54:01;;;;;;;4.93;1.87;;;;;;;;;;5062143;28;20231;-78
2023/12/12 10:56:35;;;;;;;7.60;2.47;;;;;;;;;;5081305;28;20292;-78
2023/12/12 10:59:03;;;;;;;5.40;2.53;;;;;;;;;;5082067;28;20213;-78
2023/12/12 11:01:29;;;;;;;2.40;2.00;;;;;;;;;;5073468;28;20284;-78
2023/12/12 11:03:57;;;;;;;5.90;2.50;;;;;;;;;;5080054;28;20211;-78
2023/12/12 11:06:23;;;;;;;3.37;2.50;;;;;;;;;;5079878;28;20190;-78
2023/12/12 11:08:50;;;;;;;3.50;2.20;;;;;;;;;;5078865;28;20174;-80
2023/12/12 11:11:18;;;;;;;5.17;2.40;;;;;;;;;;5080977;28;20195;-78
2023/12/12 11:13:44;;;;;;;3.27;2.00;;;;;;;;;;5081470;28;20244;-78
2023/12/12 11:16:11;;;;;;;6.37;1.77;;;;;;;;;;5079750;28;20239;-79
2023/12/12 11:18:44;;;;;;;4.67;2.10;;;;;;;;;;5089030;28;20320;-79
2023/12/12 11:21:30;;;;;;;4.50;2.40;;;;;;;;;;5082432;28;20171;-79
2023/12/12 11:23:56;;;;;;;9.77;2.50;;;;;;;;;;5085631;28;20183;-78
2023/12/12 11:26:24;;;;;;;4.60;2.43;;;;;;;;;;5083431;28;20263;-79
2023/12/12 11:28:50;;;;;;;4.53;2.50;;;;;;;;;;5081209;28;20203;-78
2023/12/12 11:31:26;;;;;;;8.13;2.77;;;;;;;;;;5086253;28;20676;-79
2023/12/12 11:34:05;;;;;;;8.60;2.50;;;;;;;;;;5081795;28;20695;-78
2023/12/12 11:36:50;;;;;;;4.57;1.90;;;;;;;;;;5083140;28;20206;-79
2023/12/12 11:39:39;;;;;;;2.83;1.53;;;;;;;;;;5080487;28;20191;-79
2023/12/12 11:42:08;;;;;;;4.23;2.30;;;;;;;;;;5082729;28;20167;-78
2023/12/12 11:44:41;;;;;;;2.43;1.60;;;;;;;;;;5082973;28;20218;-79
2023/12/12 11:47:14;;;;;;;3.77;1.70;;;;;;;;;;5077076;28;20205;-79
2023/12/12 11:49:41;;;;;;;4.57;2.10;;;;;;;;;;5086272;28;20207;-79
2023/12/12 11:52:07;;;;;;;4.70;1.90;;;;;;;;;;5082865;28;20661;-79
2023/12/12 11:54:33;;;;;;;5.73;2.10;;;;;;;;;;5085805;28;20202;-79
2023/12/12 11:57:00;;;;;;;8.07;2.03;;;;;;;;;;5085730;28;20277;-79
2023/12/12 11:59:31;;;;;;;7.23;1.87;;;;;;;;;;5084181;28;20259;-80
2023/12/12 12:01:57;;;;;;;4.27;2.20;;;;;;;;;;5077369;28;20690;-79
2023/12/12 12:04:23;;;;;;;4.97;2.70;;;;;;;;;;5082753;28;20211;-80
2023/12/12 12:06:53;;;;;;;3.90;1.73;;;;;;;;;;5083173;28;20202;-79
2023/12/12 12:09:19;;;;;;;2.67;1.70;;;;;;;;;;5085308;28;20171;-80
2023/12/12 12:11:47;;;;;;;4.10;1.90;;;;;;;;;;5078570;28;20229;-79
2023/12/12 12:14:14;;;;;;;3.97;1.97;;;;;;;;;;5083339;28;20214;-80
2023/12/12 12:16:40;;;;;;;3.87;1.77;;;;;;;;;;5077322;28;20219;-77
2023/12/12 12:19:39;;;;;;;7.60;2.40;;;;;;;;;;5080357;28;20203;-79
2023/12/12 12:22:06;;;;;;;3.30;2.10;;;;;;;;;;5042902;28;20579;-79
2023/12/12 12:24:32;;;;;;;5.43;2.30;;;;;;;;;;5081160;28;20305;-79
2023/12/12 12:26:58;;;;;;;4.63;2.00;;;;;;;;;;5080957;28;20206;-78
2023/12/12 12:29:28;;;;;;;3.90;1.87;;;;;;;;;;5083598;28;20201;-79
2023/12/12 12:31:54;;;;;;;5.07;1.77;;;;;;;;;;5080348;28;20216;-79
2023/12/12 12:34:20;;;;;;;7.07;2.03;;;;;;;;;;5087494;28;20538;-80
2023/12/12 12:36:47;;;;;;;3.53;1.93;;;;;;;;;;5083555;28;20203;-79
2023/12/12 12:39:16;;;;;;;5.30;2.03;;;;;;;;;;5085570;28;20233;-79
2023/12/12 12:41:46;;;;;;;7.60;2.63;;;;;;;;;;5066850;28;20183;-77
2023/12/12 12:44:12;;;;;;;7.63;2.30;;;;;;;;;;5085449;28;20203;-80
2023/12/12 12:46:38;;;;;;;6.00;2.57;;;;;;;;;;5083041;28;20572;-79
2023/12/12 12:49:04;;;;;;;3.83;2.20;;;;;;;;;;5085233;28;20344;-79
2023/12/12 12:51:30;;;;;;;7.50;2.20;;;;;;;;;;5084663;28;20212;-79
2023/12/12 12:53:56;;;;;;;5.73;2.13;;;;;;;;;;5080943;28;20515;-78
2023/12/12 12:56:23;;;;;;;3.40;1.60;;;;;;;;;;5084739;28;20209;-80
2023/12/12 12:58:49;;;;;;;6.17;1.97;;;;;;;;;;5078456;28;20248;-78
2023/12/12 13:01:15;;;;;;;3.90;1.80;;;;;;;;;;5084788;28;20240;-79
2023/12/12 13:03:41;;;;;;;6.67;2.67;;;;;;;;;;5081678;28;20238;-79
2023/12/12 13:06:07;;;;;;;6.63;2.77;;;;;;;;;;5080517;28;20221;-78
2023/12/12 13:08:33;;;;;;;3.70;1.80;;;;;;;;;;5082515;28;20206;-78
2023/12/12 13:10:59;;;;;;;4.23;2.03;;;;;;;;;;5064889;28;20206;-79
2023/12/12 13:13:25;;;;;;;4.43;1.67;;;;;;;;;;5081347;28;20692;-78
2023/12/12 13:15:51;;;;;;;5.23;1.87;;;;;;;;;;5080875;28;20256;-78
2023/12/12 13:18:17;;;;;;;3.20;1.40;;;;;;;;;;5083811;28;20199;-78
2023/12/12 13:20:45;;;;;;;3.70;1.73;;;;;;;;;;5085257;28;20184;-78
2023/12/12 13:23:11;;;;;;;5.70;1.80;;;;;;;;;;5081900;28;20195;-78
2023/12/12 13:25:38;;;;;;;3.23;1.50;;;;;;;;;;5086254;28;20300;-78
2023/12/12 13:28:04;;;;;;;5.33;2.23;;;;;;;;;;5084828;28;20214;-78
2023/12/12 13:30:30;;;;;;;4.93;1.73;;;;;;;;;;5080766;28;20256;-78
2023/12/12 13:32:56;;;;;;;4.00;1.50;;;;;;;;;;5082508;28;20178;-78
2023/12/12 13:35:23;;;;;;;6.70;1.77;;;;;;;;;;5086547;28;20217;-77
2023/12/12 13:37:48;;;;;;;2.27;1.20;;;;;;;;;;5082006;28;20206;-78
2023/12/12 13:40:14;;;;;;;8.40;1.87;;;;;;;;;;5084195;28;20214;-78
2023/12/12 13:42:40;;;;;;;3.70;1.73;;;;;;;;;;5083036;28;20211;-78
2023/12/12 13:45:07;;;;;;;3.57;1.70;;;;;;;;;;5081284;28;20215;-78
2023/12/12 13:47:33;;;;;;;5.67;1.63;;;;;;;;;;5078356;28;20211;-79
2023/12/12 13:50:00;;;;;;;3.17;1.67;;;;;;;;;;5063043;28;20228;-79
2023/12/12 13:52:28;;;;;;;6.90;1.67;;;;;;;;;;5084934;28;20229;-78
2023/12/12 13:54:54;;;;;;;3.50;1.30;;;;;;;;;;5081668;28;20241;-78
2023/12/12 13:57:20;;;;;;;5.00;1.70;;;;;;;;;;5061597;28;20176;-78
2023/12/12 13:59:46;;;;;;;3.87;1.53;;;;;;;;;;5080908;28;20228;-78
2023/12/12 14:02:12;;;;;;;4.03;1.23;;;;;;;;;;5082236;28;20278;-78
2023/12/12 14:04:38;;;;;;;8.20;1.43;;;;;;;;;;5085267;28;20305;-78
2023/12/12 14:07:04;;;;;;;4.63;1.80;;;;;;;;;;5081650;28;20206;-77
2023/12/12 14:09:30;;;;;;;6.20;2.17;;;;;;;;;;5083370;28;20211;-79
2023/12/12 14:11:56;;;;;;;4.67;1.53;;;;;;;;;;5082234;28;20261;-77
2023/12/12 14:14:22;;;;;;;4.47;1.70;;;;;;;;;;5085368;28;20229;-79
2023/12/12 14:16:48;;;;;;;4.20;1.57;;;;;;;;;;5075851;28;20224;-78
2023/12/12 14:19:14;;;;;;;7.93;1.83;;;;;;;;;;5081142;28;20215;-78
2023/12/12 14:21:40;;;;;;;3.07;1.63;;;;;;;;;;5082422;28;20230;-78
2023/12/12 14:24:07;;;;;;;4.13;1.90;;;;;;;;;;5082328;28;20662;-78
2023/12/12 14:26:33;;;;;;;6.50;1.97;;;;;;;;;;5081377;28;20234;-78
2023/12/12 14:28:59;;;;;;;2.33;1.50;;;;;;;;;;5083657;28;20217;-78
2023/12/12 14:31:25;;;;;;;4.33;1.30;;;;;;;;;;5080913;28;20202;-78
2023/12/12 14:33:51;;;;;;;2.60;1.30;;;;;;;;;;5081924;28;20301;-78
2023/12/12 14:36:17;;;;;;;4.23;1.80;;;;;;;;;;5080868;28;20228;-78
2023/12/12 14:38:43;;;;;;;3.00;1.50;;;;;;;;;;5066411;28;20182;-78
2023/12/12 14:41:10;;;;;;;4.27;1.50;;;;;;;;;;5081802;28;20210;-78